Tribes Hill, New York
Current Conditions -  °F | °C
As of 11:15 AM on Wednesday 28 Jan 2015 (Local Time) from KNY0 Reporting Station
Clear Clear  
Wind Chill: -20°   Ceiling: Unl
Heat Index: -12°   Visibility: 10mi
Dew Point: -19°   Wind: 13mph
Humidity: 55%   Direction: 250°WSW
Pressure: 30.07"   Gusts: 22mph
Location:  42.95°N, 74.3°W
Report Text: KNY0 281615Z AUTO 25011G19KT 10SM CLR M12/M19 A3007 RMK AO2 T11161191
Loading
Personal Weather Stations






























Interactive Weather Map New forecast layout! Learn more

10-Day Weather Forecast

Advertisements
Track Severe Weather on mobile